Time;durP1;ratioP1;P1;durP2;ratioP2;P2;SDS_P1;SDS_P2;PMS_P1;PMS_P2;Temp;Humidity;BMP_temperature;BMP_pressure;BME280_temperature;BME280_humidity;BME280_pressure;Samples;Min_cycle;Max_cycle;Signal;HPM_P1;HPM_P2
2023/08/23 00:00:41;;;;;;;8.00;4.30;;;18.20;99.90;;;;;;4250140;27;20039;-80
2023/08/23 00:02:41;;;;;;;7.57;3.97;;;18.20;99.90;;;;;;4248989;27;20039;-80
2023/08/23 00:04:42;;;;;;;10.93;4.65;;;18.10;99.90;;;;;;4261676;27;20106;-80
2023/08/23 00:06:43;;;;;;;7.15;4.13;;;18.10;99.90;;;;;;4267085;27;20039;-80
2023/08/23 00:08:43;;;;;;;6.65;4.53;;;18.10;99.90;;;;;;4254510;27;20043;-80
2023/08/23 00:10:44;;;;;;;9.82;4.35;;;18.10;99.90;;;;;;4249893;27;20135;-80
2023/08/23 00:12:45;;;;;;;9.27;4.70;;;18.10;99.90;;;;;;4248512;27;20054;-80
2023/08/23 00:14:46;;;;;;;9.30;4.70;;;18.10;99.90;;;;;;4232436;27;20031;-80
2023/08/23 00:16:46;;;;;;;7.20;3.90;;;18.00;99.90;;;;;;4214518;28;20904;-79
2023/08/23 00:18:49;;;;;;;12.27;5.30;;;18.00;99.90;;;;;;4232774;28;20054;-80
2023/08/23 00:20:50;;;;;;;9.88;4.40;;;18.00;99.90;;;;;;4231958;28;20119;-80
2023/08/23 00:22:51;;;;;;;9.88;5.10;;;18.50;99.90;;;;;;4214176;28;20051;-80
2023/08/23 00:24:51;;;;;;;8.05;4.97;;;17.90;99.90;;;;;;4232265;28;20483;-80
2023/08/23 00:26:54;;;;;;;8.73;4.60;;;17.90;99.90;;;;;;4232193;28;20072;-81
2023/08/23 00:28:55;;;;;;;10.77;5.03;;;17.90;99.90;;;;;;4232314;28;20040;-81
2023/08/23 00:30:55;;;;;;;9.82;5.40;;;17.90;99.90;;;;;;4232248;28;20040;-80
2023/08/23 00:32:56;;;;;;;7.95;4.90;;;17.80;99.90;;;;;;4231646;28;20043;-80
2023/08/23 00:34:57;;;;;;;9.35;4.47;;;17.80;99.90;;;;;;4231854;28;20051;-80
2023/08/23 00:36:57;;;;;;;6.88;4.72;;;17.70;99.90;;;;;;4231845;28;20099;-81
2023/08/23 00:38:58;;;;;;;9.50;4.53;;;17.70;99.90;;;;;;4232384;28;20610;-80
2023/08/23 00:40:59;;;;;;;8.40;4.75;;;17.70;99.90;;;;;;4231934;28;20105;-81
2023/08/23 00:43:00;;;;;;;9.35;5.18;;;17.70;99.90;;;;;;4231614;28;20050;-81
2023/08/23 00:45:00;;;;;;;12.50;5.55;;;17.70;99.90;;;;;;4213645;28;20055;-81
2023/08/23 00:47:02;;;;;;;9.90;4.68;;;17.70;99.90;;;;;;4222149;28;20048;-81
2023/08/23 00:49:03;;;;;;;10.55;5.28;;;17.60;99.90;;;;;;4248936;27;20047;-81
2023/08/23 00:51:04;;;;;;;11.32;4.88;;;17.60;99.90;;;;;;4230064;28;20047;-80
2023/08/23 00:53:10;;;;;;;8.05;5.10;;;17.60;99.90;;;;;;4230228;28;20089;-80
2023/08/23 00:55:11;;;;;;;8.10;4.90;;;17.60;99.90;;;;;;4230386;28;20040;-81
2023/08/23 00:57:12;;;;;;;11.65;4.72;;;17.50;99.90;;;;;;4248258;27;20043;-80
2023/08/23 00:59:14;;;;;;;12.77;5.22;;;17.50;99.90;;;;;;4248450;27;20077;-80
2023/08/23 01:01:15;;;;;;;7.78;4.88;;;17.50;99.90;;;;;;4229959;28;20056;-80
2023/08/23 01:03:16;;;;;;;9.40;5.55;;;17.50;99.90;;;;;;4248320;27;20491;-80
2023/08/23 01:05:17;;;;;;;9.68;5.72;;;17.50;99.90;;;;;;4229878;28;20751;-80
2023/08/23 01:07:27;;;;;;;8.63;5.15;;;17.50;99.90;;;;;;4229935;28;20137;-81
2023/08/23 01:09:57;;;;;;;13.98;5.85;;;17.40;99.90;;;;;;4231385;28;20054;-80
2023/08/23 01:12:41;;;;;;;8.98;5.57;;;17.40;99.90;;;;;;4230121;28;20043;-80
2023/08/23 01:15:07;;;;;;;9.55;4.60;;;17.40;99.90;;;;;;4179127;28;20048;-80
2023/08/23 01:17:09;;;;;;;7.20;4.90;;;17.40;99.90;;;;;;4179186;28;20498;-80
2023/08/23 01:19:40;;;;;;;8.73;4.90;;;17.40;99.90;;;;;;4172823;28;20049;-81
2023/08/23 01:21:43;;;;;;;9.98;4.60;;;17.40;99.90;;;;;;4230854;28;20438;-80
2023/08/23 01:23:44;;;;;;;9.10;5.10;;;17.40;99.90;;;;;;4231111;28;20044;-80
2023/08/23 01:25:52;;;;;;;12.90;6.13;;;17.40;99.90;;;;;;4230251;28;20048;-80
2023/08/23 01:27:53;;;;;;;8.40;5.22;;;17.30;99.90;;;;;;4213385;28;20055;-80
2023/08/23 01:29:54;;;;;;;10.35;4.93;;;17.30;99.90;;;;;;4229693;28;20090;-80
2023/08/23 01:32:00;;;;;;;11.02;5.63;;;17.30;99.90;;;;;;4229439;28;20491;-80
2023/08/23 01:34:09;;;;;;;10.02;5.03;;;17.30;99.90;;;;;;4230002;28;20047;-80
2023/08/23 01:36:30;;;;;;;11.90;5.47;;;17.30;99.90;;;;;;4229698;28;20488;-80
2023/08/23 01:38:32;;;;;;;9.40;6.22;;;17.20;99.90;;;;;;4229951;28;20082;-81
2023/08/23 01:40:35;;;;;;;11.55;5.65;;;17.20;99.90;;;;;;4240727;28;20043;-80
2023/08/23 01:42:47;;;;;;;10.13;5.53;;;17.20;99.90;;;;;;4248211;28;20050;-80
2023/08/23 01:44:50;;;;;;;11.40;5.60;;;17.20;99.90;;;;;;4238993;28;20057;-81
2023/08/23 01:46:51;;;;;;;11.27;5.68;;;17.10;99.90;;;;;;4231593;28;20047;-81
2023/08/23 01:48:52;;;;;;;10.73;6.05;;;17.10;99.90;;;;;;4230047;28;20123;-81
2023/08/23 01:50:53;;;;;;;15.70;5.90;;;17.10;99.90;;;;;;4230066;28;20552;-81
2023/08/23 01:52:54;;;;;;;16.45;6.78;;;17.10;99.90;;;;;;4230156;28;20071;-81
2023/08/23 01:54:54;;;;;;;12.30;6.05;;;17.10;99.90;;;;;;4230923;28;20035;-80
2023/08/23 01:56:55;;;;;;;10.73;5.90;;;17.00;99.90;;;;;;4231583;28;20035;-80
2023/08/23 01:58:56;;;;;;;8.40;5.10;;;17.00;99.90;;;;;;4230184;28;20130;-81
2023/08/23 02:00:58;;;;;;;11.45;6.53;;;17.00;99.90;;;;;;4231302;28;20484;-81
2023/08/23 02:02:59;;;;;;;8.95;5.30;;;17.00;99.90;;;;;;4231166;28;20487;-80
2023/08/23 02:05:00;;;;;;;11.68;5.50;;;17.00;99.90;;;;;;4231157;28;20039;-80
2023/08/23 02:07:00;;;;;;;8.93;5.38;;;17.00;99.90;;;;;;4230889;27;20039;-81
2023/08/23 02:09:01;;;;;;;11.63;5.80;;;17.00;99.90;;;;;;4248151;28;20088;-81
2023/08/23 02:11:02;;;;;;;11.57;5.78;;;17.00;99.90;;;;;;4251332;27;20050;-80
2023/08/23 02:13:05;;;;;;;11.05;5.18;;;17.00;99.90;;;;;;4270846;27;20019;-81
2023/08/23 02:15:06;;;;;;;9.80;5.95;;;16.90;99.90;;;;;;4253362;28;20079;-80
2023/08/23 02:17:07;;;;;;;10.68;5.47;;;17.00;99.90;;;;;;4234466;28;20051;-81
2023/08/23 02:19:08;;;;;;;11.23;6.03;;;17.00;99.90;;;;;;4234194;28;20051;-81
2023/08/23 02:21:09;;;;;;;10.75;5.40;;;17.00;99.90;;;;;;4215988;28;20451;-81
2023/08/23 02:23:09;;;;;;;12.13;4.78;;;16.90;99.90;;;;;;4235049;28;20048;-81
2023/08/23 02:25:10;;;;;;;13.70;6.80;;;16.90;99.90;;;;;;4234110;28;20396;-81
2023/08/23 02:27:11;;;;;;;13.50;6.22;;;16.90;99.90;;;;;;4233806;28;20049;-81
2023/08/23 02:29:12;;;;;;;11.88;6.75;;;16.90;99.90;;;;;;4233756;27;20558;-80
2023/08/23 02:31:13;;;;;;;12.02;5.82;;;16.90;99.90;;;;;;4233935;28;20046;-81
2023/08/23 02:33:14;;;;;;;11.45;6.32;;;16.90;99.90;;;;;;4234018;28;20095;-80
2023/08/23 02:35:14;;;;;;;10.80;5.78;;;16.80;99.90;;;;;;4233869;28;20144;-81
2023/08/23 02:37:15;;;;;;;12.70;6.80;;;16.90;99.90;;;;;;4233662;28;20043;-81
2023/08/23 02:39:16;;;;;;;17.60;6.20;;;16.90;99.90;;;;;;4233174;28;20044;-80
2023/08/23 02:41:17;;;;;;;12.23;5.63;;;16.80;99.90;;;;;;4215451;28;20098;-80
2023/08/23 02:43:18;;;;;;;10.07;5.85;;;16.90;99.90;;;;;;4232808;28;20510;-80
2023/08/23 02:45:19;;;;;;;13.90;6.25;;;16.80;99.90;;;;;;4233810;28;20053;-80
2023/08/23 02:47:19;;;;;;;11.55;6.20;;;16.80;99.90;;;;;;4243091;27;20122;-80
2023/08/23 02:49:20;;;;;;;10.20;6.00;;;16.80;99.90;;;;;;4250745;27;20047;-80
2023/08/23 02:51:21;;;;;;;12.70;5.10;;;16.80;99.90;;;;;;4231958;28;20051;-80
2023/08/23 02:53:22;;;;;;;12.48;5.90;;;16.80;99.90;;;;;;4250294;27;20406;-80
2023/08/23 02:55:22;;;;;;;11.50;6.10;;;16.80;99.90;;;;;;4250564;27;20062;-80
2023/08/23 02:57:23;;;;;;;12.70;6.13;;;16.80;99.90;;;;;;4232623;28;20051;-80
2023/08/23 02:59:24;;;;;;;14.68;6.70;;;16.70;99.90;;;;;;4250428;27;20040;-80
2023/08/23 03:01:25;;;;;;;14.30;6.30;;;16.70;99.90;;;;;;4250493;27;20105;-80
2023/08/23 03:03:25;;;;;;;15.23;5.78;;;16.70;99.90;;;;;;4250223;27;20047;-80
2023/08/23 03:05:26;;;;;;;13.95;5.82;;;16.70;99.90;;;;;;4250604;27;20039;-80
2023/08/23 03:07:27;;;;;;;11.30;5.90;;;16.70;99.90;;;;;;4250069;27;20109;-80
2023/08/23 03:09:28;;;;;;;11.20;5.97;;;16.70;99.90;;;;;;4250416;27;20046;-80
2023/08/23 03:11:28;;;;;;;11.77;6.20;;;16.70;99.90;;;;;;4249897;27;20046;-80
2023/08/23 03:13:29;;;;;;;12.15;6.22;;;16.60;99.90;;;;;;4250402;27;20068;-80
2023/08/23 03:15:30;;;;;;;17.48;6.38;;;16.60;99.90;;;;;;4250411;27;20031;-80
2023/08/23 03:17:31;;;;;;;14.55;6.28;;;16.70;99.90;;;;;;4232005;28;20097;-80
2023/08/23 03:19:32;;;;;;;10.63;6.35;;;16.70;99.90;;;;;;4250236;27;20172;-80
2023/08/23 03:21:33;;;;;;;12.20;5.68;;;16.60;99.90;;;;;;4232424;28;20047;-80
2023/08/23 03:23:34;;;;;;;12.00;5.75;;;16.70;99.90;;;;;;4250103;27;20398;-80
2023/08/23 03:25:34;;;;;;;13.60;6.38;;;16.70;99.90;;;;;;4250192;27;20043;-80
2023/08/23 03:27:35;;;;;;;9.40;5.18;;;16.70;99.90;;;;;;4249802;27;20043;-80
2023/08/23 03:29:36;;;;;;;13.00;5.93;;;16.70;99.90;;;;;;4250082;27;20070;-80
2023/08/23 03:31:37;;;;;;;9.93;6.10;;;16.70;99.90;;;;;;4250146;27;20042;-80
2023/08/23 03:33:38;;;;;;;12.85;6.35;;;16.70;99.90;;;;;;4255549;27;20112;-80
2023/08/23 03:35:38;;;;;;;14.70;7.18;;;16.70;99.90;;;;;;4259616;27;20053;-80
2023/08/23 03:37:39;;;;;;;13.90;6.70;;;16.70;99.90;;;;;;4256804;27;20394;-80
2023/08/23 03:39:40;;;;;;;15.50;6.30;;;16.70;99.90;;;;;;4255265;27;20039;-80
2023/08/23 03:41:41;;;;;;;14.00;7.32;;;16.70;99.90;;;;;;4251594;27;20043;-80
2023/08/23 03:43:41;;;;;;;12.90;6.28;;;16.70;99.90;;;;;;4238024;28;20043;-81
2023/08/23 03:45:47;;;;;;;16.42;7.07;;;16.80;99.90;;;;;;4270894;27;20038;-80
2023/08/23 03:47:48;;;;;;;14.43;6.82;;;16.80;99.90;;;;;;4249587;28;20118;-80
2023/08/23 03:49:49;;;;;;;13.00;6.68;;;16.70;99.90;;;;;;4249631;27;20112;-80
2023/08/23 03:51:50;;;;;;;13.73;6.65;;;16.70;99.90;;;;;;4249831;27;20082;-80
2023/08/23 03:53:50;;;;;;;14.85;6.25;;;16.70;99.90;;;;;;4249791;27;20517;-80
2023/08/23 03:55:54;;;;;;;10.93;5.88;;;16.70;99.90;;;;;;4249601;27;20035;-80
2023/08/23 03:57:55;;;;;;;11.40;6.35;;;16.60;99.90;;;;;;4249678;27;20918;-80
2023/08/23 03:59:56;;;;;;;11.27;6.25;;;16.60;99.90;;;;;;4249649;27;20035;-80
2023/08/23 04:01:57;;;;;;;11.55;6.15;;;16.60;99.90;;;;;;4251702;27;20043;-80
2023/08/23 04:03:57;;;;;;;11.43;6.43;;;16.60;99.90;;;;;;4254618;27;20099;-79
2023/08/23 04:06:02;;;;;;;10.45;5.70;;;16.50;99.90;;;;;;4252886;27;20176;-80
2023/08/23 04:08:06;;;;;;;9.55;5.80;;;16.50;99.90;;;;;;4248845;27;20488;-80
2023/08/23 04:10:08;;;;;;;11.63;5.93;;;16.40;99.90;;;;;;4249423;27;20403;-80
2023/08/23 04:12:09;;;;;;;10.52;5.45;;;16.30;99.90;;;;;;4231308;28;20050;-80
2023/08/23 04:14:09;;;;;;;10.00;5.85;;;16.30;99.90;;;;;;4249366;27;20046;-79
2023/08/23 04:16:12;;;;;;;12.07;6.40;;;16.30;99.90;;;;;;4249554;27;20395;-80
2023/08/23 04:18:13;;;;;;;11.65;6.00;;;16.20;99.90;;;;;;4250899;27;20114;-80
2023/08/23 04:20:14;;;;;;;10.20;5.82;;;16.20;99.90;;;;;;4230543;28;20047;-80
2023/08/23 04:22:15;;;;;;;13.45;6.30;;;16.20;99.90;;;;;;4248993;27;20467;-80
2023/08/23 04:24:17;;;;;;;11.98;6.30;;;16.20;99.90;;;;;;4249047;27;20071;-80
2023/08/23 04:26:18;;;;;;;11.32;5.93;;;16.10;99.90;;;;;;4248860;27;20054;-80
2023/08/23 04:28:19;;;;;;;15.10;6.75;;;16.10;99.90;;;;;;4248876;27;20075;-80
2023/08/23 04:30:20;;;;;;;10.73;6.38;;;16.10;99.90;;;;;;4238215;27;20480;-80
2023/08/23 04:32:21;;;;;;;13.48;6.63;;;16.10;99.90;;;;;;4232043;28;20093;-80
2023/08/23 04:34:22;;;;;;;10.32;6.03;;;16.10;99.90;;;;;;4231419;28;20082;-81
2023/08/23 04:36:22;;;;;;;10.82;5.97;;;16.10;99.90;;;;;;4231770;28;20040;-80
2023/08/23 04:38:23;;;;;;;13.20;6.90;;;16.20;99.90;;;;;;4213829;28;20060;-80
2023/08/23 04:40:24;;;;;;;13.40;7.22;;;16.10;99.90;;;;;;4231745;28;20039;-80
2023/08/23 04:42:25;;;;;;;12.38;6.40;;;16.20;99.90;;;;;;4231472;28;20043;-80
2023/08/23 04:44:27;;;;;;;12.05;6.82;;;16.20;99.90;;;;;;4213404;28;20040;-80
2023/08/23 04:46:28;;;;;;;10.93;5.97;;;16.20;99.90;;;;;;4231477;27;20051;-80
2023/08/23 04:48:28;;;;;;;13.40;7.00;;;16.20;99.90;;;;;;4248509;27;20487;-80
2023/08/23 04:50:29;;;;;;;10.95;6.45;;;16.20;99.90;;;;;;4213340;28;20056;-80
2023/08/23 04:52:30;;;;;;;10.65;5.85;;;16.30;99.90;;;;;;4248023;27;20411;-80
2023/08/23 04:54:31;;;;;;;12.43;6.38;;;16.20;99.90;;;;;;4248440;27;20053;-80
2023/08/23 04:56:31;;;;;;;13.40;6.88;;;16.30;99.90;;;;;;4248574;27;20399;-80
2023/08/23 04:58:32;;;;;;;13.38;7.63;;;16.30;99.90;;;;;;4248198;27;20035;-80
2023/08/23 05:00:33;;;;;;;15.57;8.20;;;16.30;99.90;;;;;;4243858;27;20044;-80
2023/08/23 05:02:34;;;;;;;13.00;6.60;;;16.40;99.90;;;;;;4231042;28;20043;-80
2023/08/23 05:04:35;;;;;;;14.70;6.68;;;16.40;99.90;;;;;;4231608;28;20047;-81
2023/08/23 05:06:36;;;;;;;15.02;6.80;;;16.40;99.90;;;;;;4231592;28;20488;-80
2023/08/23 05:08:37;;;;;;;13.30;6.63;;;16.40;99.90;;;;;;4231317;28;20059;-80
2023/08/23 05:10:38;;;;;;;13.52;6.63;;;16.40;99.90;;;;;;4231359;28;20062;-80
2023/08/23 05:12:38;;;;;;;12.77;7.88;;;16.50;99.90;;;;;;4230023;28;20110;-80
2023/08/23 05:14:39;;;;;;;12.95;7.00;;;16.50;99.90;;;;;;4230709;28;20046;-80
2023/08/23 05:16:40;;;;;;;13.75;7.97;;;16.50;99.90;;;;;;4231409;28;20043;-77
2023/08/23 05:18:40;;;;;;;17.30;8.82;;;16.50;99.90;;;;;;4241431;27;20067;-77
2023/08/23 05:20:41;;;;;;;16.63;8.38;;;16.50;99.90;;;;;;4213479;28;20062;-79
2023/08/23 05:22:42;;;;;;;20.35;9.30;;;16.50;99.90;;;;;;4231304;28;20039;-79
2023/08/23 05:24:43;;;;;;;21.10;9.23;;;16.50;99.90;;;;;;4231453;28;20044;-79
2023/08/23 05:26:44;;;;;;;21.70;9.90;;;16.60;99.90;;;;;;4222023;28;20055;-79
2023/08/23 05:28:45;;;;;;;19.38;10.77;;;16.60;99.90;;;;;;4236944;28;20038;-79
2023/08/23 05:30:46;;;;;;;22.08;10.02;;;16.60;99.90;;;;;;4215180;28;20048;-79
2023/08/23 05:32:47;;;;;;;21.83;10.52;;;16.60;99.90;;;;;;4230940;28;20089;-79
2023/08/23 05:34:55;;;;;;;20.48;10.05;;;15.90;99.90;;;;;;4231208;28;20047;-79
2023/08/23 05:36:56;;;;;;;25.20;11.63;;;16.60;99.90;;;;;;4230851;28;20061;-80
2023/08/23 05:38:57;;;;;;;26.85;11.95;;;16.60;99.90;;;;;;4213051;28;20056;-79
2023/08/23 05:40:57;;;;;;;26.15;10.95;;;16.60;99.90;;;;;;4230614;28;20051;-80
2023/08/23 05:42:58;;;;;;;24.42;11.68;;;16.60;99.90;;;;;;4230841;28;20065;-79
2023/08/23 05:44:59;;;;;;;24.52;11.68;;;16.60;99.90;;;;;;4213212;28;20126;-80
2023/08/23 05:47:00;;;;;;;30.35;12.20;;;16.70;99.90;;;;;;4231700;28;20051;-80
2023/08/23 05:49:00;;;;;;;25.17;12.55;;;16.70;99.90;;;;;;4199660;28;20119;-79
2023/08/23 05:51:04;;;;;;;26.02;11.98;;;16.70;99.90;;;;;;4234259;28;20065;-79
2023/08/23 05:53:10;;;;;;;24.30;11.65;;;16.70;99.90;;;;;;4234473;28;20054;-79
2023/08/23 05:55:10;;;;;;;23.25;12.05;;;16.70;99.90;;;;;;4234216;28;20839;-79
2023/08/23 05:57:11;;;;;;;19.20;10.85;;;16.70;99.90;;;;;;4234239;28;20078;-79
2023/08/23 05:59:12;;;;;;;27.48;11.43;;;15.90;99.90;;;;;;4234290;28;20043;-79
2023/08/23 06:01:13;;;;;;;22.55;11.48;;;16.90;99.90;;;;;;4234459;28;20078;-79
2023/08/23 06:03:14;;;;;;;19.25;10.95;;;17.00;99.90;;;;;;4234369;28;20057;-79
2023/08/23 06:05:15;;;;;;;21.33;11.60;;;16.90;99.90;;;;;;4234360;27;20484;-79
2023/08/23 06:07:16;;;;;;;22.90;11.15;;;16.90;99.90;;;;;;4234045;27;20039;-79
2023/08/23 06:09:18;;;;;;;19.17;10.75;;;17.00;99.90;;;;;;4234374;28;20059;-79
2023/08/23 06:11:18;;;;;;;21.95;11.88;;;17.10;99.90;;;;;;4229074;28;20486;-79
2023/08/23 06:13:19;;;;;;;21.63;11.63;;;17.30;99.90;;;;;;4251235;27;20039;-79
2023/08/23 06:15:20;;;;;;;19.52;10.55;;;17.20;99.90;;;;;;4249539;27;20046;-79
2023/08/23 06:17:25;;;;;;;26.67;10.82;;;17.30;99.90;;;;;;4231625;28;20078;-79
2023/08/23 06:19:27;;;;;;;19.73;10.68;;;17.30;99.90;;;;;;4249979;27;20648;-85
2023/08/23 06:21:28;;;;;;;21.67;10.50;;;17.40;99.90;;;;;;4249878;27;20511;-83
2023/08/23 06:23:29;;;;;;;20.05;9.88;;;17.00;99.90;;;;;;4251243;27;20046;-83
2023/08/23 06:25:30;;;;;;;21.23;10.98;;;17.50;99.90;;;;;;4251150;27;20043;-83
2023/08/23 06:27:30;;;;;;;19.15;10.05;;;17.50;99.90;;;;;;4235384;27;20495;-82
2023/08/23 06:29:31;;;;;;;20.85;9.75;;;17.60;99.90;;;;;;4233626;28;20044;-82
2023/08/23 06:31:32;;;;;;;19.02;9.27;;;17.60;99.90;;;;;;4215658;28;20040;-82
2023/08/23 06:33:33;;;;;;;19.88;9.20;;;17.70;99.90;;;;;;4232652;28;20085;-82
2023/08/23 06:35:35;;;;;;;18.58;8.75;;;17.70;99.90;;;;;;4233875;28;20046;-82
2023/08/23 06:37:35;;;;;;;17.98;8.52;;;17.80;99.90;;;;;;4215502;28;20508;-82
2023/08/23 06:39:36;;;;;;;17.40;9.02;;;17.90;99.90;;;;;;4215814;28;20131;-82
2023/08/23 06:41:37;;;;;;;14.75;9.05;;;17.90;99.90;;;;;;4233528;28;20501;-82
2023/08/23 06:43:38;;;;;;;20.55;8.43;;;18.00;99.90;;;;;;4215311;28;20408;-82
2023/08/23 06:45:39;;;;;;;11.50;6.28;;;18.10;99.90;;;;;;4233525;28;20035;-82
2023/08/23 06:47:39;;;;;;;14.68;7.90;;;18.20;99.90;;;;;;4233484;28;20082;-82
2023/08/23 06:49:40;;;;;;;13.40;7.70;;;18.30;99.90;;;;;;4215429;28;20039;-82
2023/08/23 06:51:41;;;;;;;13.27;7.35;;;18.30;99.90;;;;;;4233628;28;20043;-82
2023/08/23 06:53:42;;;;;;;15.48;6.80;;;18.40;99.90;;;;;;4233280;28;20039;-83
2023/08/23 06:55:43;;;;;;;16.60;6.85;;;17.90;99.90;;;;;;4220823;27;20121;-83
2023/08/23 06:57:44;;;;;;;11.25;6.65;;;18.50;99.90;;;;;;4244234;27;20071;-83
2023/08/23 06:59:45;;;;;;;11.15;6.95;;;18.60;99.90;;;;;;4241342;27;20474;-83
2023/08/23 07:01:47;;;;;;;10.38;6.43;;;18.70;99.90;;;;;;4215344;28;20043;-83
2023/08/23 07:03:48;;;;;;;11.95;6.93;;;18.80;99.90;;;;;;4250405;27;20096;-83
2023/08/23 07:05:49;;;;;;;11.95;6.97;;;18.80;99.90;;;;;;4237032;27;20487;-83
2023/08/23 07:07:49;;;;;;;12.18;7.10;;;18.90;99.90;;;;;;4215733;28;20051;-83
2023/08/23 07:09:50;;;;;;;14.52;7.13;;;19.00;99.90;;;;;;4238838;27;20050;-83
2023/08/23 07:11:51;;;;;;;12.57;7.47;;;19.10;99.90;;;;;;4233508;28;20498;-84
2023/08/23 07:13:52;;;;;;;16.27;8.20;;;19.10;99.90;;;;;;4236498;27;20032;-84
2023/08/23 07:15:53;;;;;;;14.43;7.80;;;19.10;99.90;;;;;;4250291;27;20122;-84
2023/08/23 07:17:53;;;;;;;15.73;8.50;;;19.30;99.90;;;;;;4250242;27;20065;-84
2023/08/23 07:19:55;;;;;;;14.82;8.32;;;19.30;99.90;;;;;;4232020;28;20097;-85
2023/08/23 07:21:58;;;;;;;18.10;7.18;;;19.40;99.90;;;;;;4250395;27;20043;-85
2023/08/23 07:23:58;;;;;;;13.10;7.85;;;19.50;99.90;;;;;;4250578;27;20035;-85
2023/08/23 07:26:02;;;;;;;16.23;7.65;;;19.60;99.90;;;;;;4245784;27;20044;-84
2023/08/23 07:28:04;;;;;;;15.18;7.80;;;19.70;99.90;;;;;;4232997;28;20086;-85
2023/08/23 07:30:05;;;;;;;13.63;7.80;;;19.90;99.90;;;;;;4214757;28;20056;-84
2023/08/23 07:32:06;;;;;;;13.40;7.47;;;20.10;99.90;;;;;;4233197;28;20046;-83
2023/08/23 07:34:07;;;;;;;13.75;7.70;;;20.20;99.90;;;;;;4232899;28;20077;-86
2023/08/23 07:36:08;;;;;;;12.13;7.13;;;20.10;99.90;;;;;;4197976;28;20097;-85
2023/08/23 07:38:09;;;;;;;15.25;8.27;;;20.20;99.90;;;;;;4216797;28;20480;-84
2023/08/23 07:40:10;;;;;;;11.25;6.88;;;20.20;99.90;;;;;;4234998;27;20088;-84
2023/08/23 07:42:10;;;;;;;14.05;6.75;;;20.40;99.90;;;;;;4232790;28;20044;-84
2023/08/23 07:44:11;;;;;;;12.65;6.47;;;20.50;99.90;;;;;;4232841;28;20076;-83
2023/08/23 07:46:12;;;;;;;9.73;5.35;;;20.60;99.90;;;;;;4214770;28;20049;-84
2023/08/23 07:48:13;;;;;;;9.57;5.88;;;20.70;99.90;;;;;;4232819;28;20043;-84
2023/08/23 07:50:16;;;;;;;10.77;5.82;;;20.60;99.90;;;;;;4214162;28;20037;-86
2023/08/23 07:52:16;;;;;;;10.93;6.55;;;20.70;99.90;;;;;;4223217;28;20044;-85
2023/08/23 07:54:17;;;;;;;10.88;6.47;;;20.70;99.90;;;;;;4249212;27;20476;-84
2023/08/23 07:56:18;;;;;;;12.50;5.75;;;20.70;99.90;;;;;;4249811;27;20445;-84
2023/08/23 07:58:19;;;;;;;10.48;6.13;;;20.70;99.90;;;;;;4249389;27;20046;-84
2023/08/23 08:00:20;;;;;;;10.40;5.80;;;20.70;99.90;;;;;;4249644;27;20055;-84
2023/08/23 08:02:22;;;;;;;13.50;6.03;;;20.80;99.90;;;;;;4249644;27;20475;-83
2023/08/23 08:04:23;;;;;;;10.50;5.97;;;20.90;99.90;;;;;;4250013;27;20042;-84
2023/08/23 08:06:24;;;;;;;10.18;5.20;;;21.00;99.90;;;;;;4231688;28;20492;-83
2023/08/23 08:08:25;;;;;;;7.80;5.50;;;20.90;99.90;;;;;;4231110;28;20062;-83
2023/08/23 08:10:27;;;;;;;11.23;5.63;;;20.90;99.90;;;;;;4230459;28;20048;-84
2023/08/23 08:12:27;;;;;;;9.27;5.13;;;21.00;99.90;;;;;;4232087;28;20548;-84
2023/08/23 08:14:28;;;;;;;12.13;5.80;;;21.30;99.90;;;;;;4232656;28;20035;-82
2023/08/23 08:16:29;;;;;;;9.90;5.75;;;21.40;99.90;;;;;;4226537;28;20060;-79
2023/08/23 08:18:30;;;;;;;6.60;4.53;;;21.50;99.90;;;;;;4214220;28;20056;-80
2023/08/23 08:20:31;;;;;;;13.10;5.10;;;21.60;99.90;;;;;;4215400;28;20051;-80
2023/08/23 08:22:31;;;;;;;12.05;4.68;;;21.80;99.90;;;;;;4215099;28;20101;-80
2023/08/23 08:24:32;;;;;;;7.35;4.53;;;22.00;99.90;;;;;;4215251;28;20043;-80
2023/08/23 08:26:33;;;;;;;11.98;5.38;;;22.10;99.90;;;;;;4214708;28;20172;-80
2023/08/23 08:28:34;;;;;;;10.07;5.03;;;22.20;99.90;;;;;;4215198;28;20043;-80
2023/08/23 08:30:35;;;;;;;9.80;5.28;;;22.30;99.90;;;;;;4214908;28;20050;-80
2023/08/23 08:32:35;;;;;;;10.05;4.97;;;22.50;99.90;;;;;;4214969;28;20048;-80
2023/08/23 08:34:36;;;;;;;13.68;5.70;;;22.60;99.90;;;;;;4214098;28;20115;-80
2023/08/23 08:36:37;;;;;;;9.75;5.20;;;22.80;99.90;;;;;;4214994;28;20036;-81
2023/08/23 08:38:38;;;;;;;9.32;4.65;;;22.90;99.90;;;;;;4218204;27;20083;-81
2023/08/23 08:40:39;;;;;;;11.95;4.45;;;23.00;99.90;;;;;;4235896;27;20039;-81
2023/08/23 08:42:40;;;;;;;7.35;4.13;;;23.00;99.90;;;;;;4226280;27;20036;-80
2023/08/23 08:44:44;;;;;;;5.95;4.28;;;23.20;99.90;;;;;;4214137;28;20085;-81
2023/08/23 08:46:45;;;;;;;10.00;5.15;;;23.40;99.90;;;;;;4214701;28;20070;-80
2023/08/23 08:48:46;;;;;;;10.82;5.13;;;23.50;99.90;;;;;;4214959;28;20044;-80
2023/08/23 08:50:47;;;;;;;9.82;4.60;;;23.50;99.90;;;;;;4215048;28;20047;-80
2023/08/23 08:52:52;;;;;;;8.63;4.40;;;23.60;99.90;;;;;;4215082;28;20059;-80
2023/08/23 08:54:54;;;;;;;10.20;5.10;;;23.70;99.90;;;;;;4214612;28;20054;-80
2023/08/23 08:56:57;;;;;;;8.38;4.10;;;23.60;99.90;;;;;;4220955;28;20097;-81
2023/08/23 08:59:23;;;;;;;11.45;5.03;;;23.30;99.90;;;;;;4220844;28;20043;-80
2023/08/23 09:01:30;;;;;;;8.43;4.35;;;23.30;99.90;;;;;;4214797;28;20048;-80
2023/08/23 09:03:32;;;;;;;9.65;4.88;;;23.10;99.90;;;;;;4226405;28;20039;-81
2023/08/23 09:05:33;;;;;;;7.20;4.13;;;22.80;99.90;;;;;;4231269;28;20054;-80
2023/08/23 09:07:34;;;;;;;6.68;4.70;;;22.70;99.90;;;;;;4228819;28;20412;-81
2023/08/23 09:09:35;;;;;;;9.38;4.68;;;23.00;99.90;;;;;;4241828;27;20047;-81
2023/08/23 09:11:36;;;;;;;9.70;5.30;;;23.30;99.90;;;;;;4248253;27;20047;-80
2023/08/23 09:13:37;;;;;;;7.35;4.32;;;23.30;99.90;;;;;;4238064;27;20035;-80
2023/08/23 09:15:38;;;;;;;8.68;5.20;;;23.40;99.90;;;;;;4249750;27;20204;-80
2023/08/23 09:17:38;;;;;;;9.32;4.57;;;23.60;99.90;;;;;;4247457;27;20395;-80
2023/08/23 09:19:42;;;;;;;6.90;4.63;;;23.90;99.90;;;;;;4244368;27;20042;-80
2023/08/23 09:21:49;;;;;;;6.80;4.10;;;24.20;99.90;;;;;;4233283;27;20039;-80
2023/08/23 09:23:50;;;;;;;8.75;3.97;;;24.30;99.90;;;;;;4222973;28;20039;-81
2023/08/23 09:25:51;;;;;;;8.30;4.63;;;24.50;99.90;;;;;;4247840;27;20055;-80
2023/08/23 09:27:54;;;;;;;10.70;4.97;;;24.80;99.90;;;;;;4229680;28;20048;-80
2023/08/23 09:29:57;;;;;;;7.78;4.28;;;25.20;99.90;;;;;;4248257;27;20043;-80
2023/08/23 09:31:59;;;;;;;9.23;4.53;;;25.30;99.90;;;;;;4248250;27;20082;-80
2023/08/23 09:34:01;;;;;;;11.38;4.68;;;25.20;99.90;;;;;;4248239;27;20108;-80
2023/08/23 09:36:02;;;;;;;7.80;3.95;;;25.10;99.90;;;;;;4247475;27;20100;-80
2023/08/23 09:38:04;;;;;;;10.50;4.78;;;25.20;99.90;;;;;;4248177;27;20487;-80
2023/08/23 09:40:05;;;;;;;8.15;3.90;;;25.40;99.90;;;;;;4248091;27;20122;-80
2023/08/23 09:42:06;;;;;;;10.25;4.57;;;25.60;99.90;;;;;;4248058;27;20043;-80
2023/08/23 09:44:07;;;;;;;7.93;3.78;;;26.00;99.90;;;;;;4249232;27;20053;-81
2023/08/23 09:46:10;;;;;;;7.68;4.20;;;26.50;99.90;;;;;;4245762;27;20042;-81
2023/08/23 09:48:11;;;;;;;5.85;3.83;;;26.40;99.90;;;;;;4244389;28;20551;-81
2023/08/23 09:50:13;;;;;;;8.00;4.05;;;26.30;99.90;;;;;;4239918;28;20039;-81
2023/08/23 09:52:13;;;;;;;7.40;4.15;;;26.20;99.90;;;;;;4214699;28;20055;-81
2023/08/23 09:54:20;;;;;;;9.57;4.72;;;26.00;99.90;;;;;;4247734;28;20039;-81
2023/08/23 09:56:22;;;;;;;9.70;4.65;;;25.70;99.90;;;;;;4247924;28;20463;-81
2023/08/23 09:58:24;;;;;;;9.40;5.55;;;25.40;99.90;;;;;;4247999;28;20091;-81
2023/08/23 10:00:27;;;;;;;12.68;5.78;;;25.20;99.90;;;;;;4248031;28;20131;-81
2023/08/23 10:02:29;;;;;;;12.05;5.28;;;25.00;99.90;;;;;;4245558;28;20043;-81
2023/08/23 10:04:30;;;;;;;11.90;5.28;;;24.90;99.90;;;;;;4247848;28;20497;-81
2023/08/23 10:06:31;;;;;;;13.45;6.43;;;25.00;99.90;;;;;;4229661;28;20040;-81
2023/08/23 10:08:34;;;;;;;12.52;5.00;;;25.00;99.90;;;;;;4247637;28;20128;-81
2023/08/23 10:10:37;;;;;;;6.85;5.20;;;24.90;99.90;;;;;;4247960;28;20146;-81
2023/08/23 10:12:42;;;;;;;8.10;4.40;;;25.00;99.90;;;;;;4247832;28;20039;-81
2023/08/23 10:14:47;;;;;;;7.10;4.22;;;25.30;99.90;;;;;;4247666;28;20047;-81
2023/08/23 10:16:49;;;;;;;8.98;3.75;;;25.60;99.90;;;;;;4247892;28;20091;-81
2023/08/23 10:18:51;;;;;;;6.97;3.85;;;25.90;99.90;;;;;;4247925;28;20043;-81
2023/08/23 10:20:53;;;;;;;9.63;3.95;;;26.30;99.90;;;;;;4247954;28;20043;-81
2023/08/23 10:22:57;;;;;;;8.95;4.22;;;26.70;99.90;;;;;;4247858;28;20082;-81
2023/08/23 10:24:57;;;;;;;4.50;3.60;;;26.60;99.90;;;;;;4247750;28;20035;-81
2023/08/23 10:27:08;;;;;;;8.05;3.85;;;26.20;99.90;;;;;;4228951;28;20131;-81